Detalii statie SOMALEX GHIMPATI [0000198E]

Condiții climatice - Boli

Date Temperatura solului [C]Precipitatii [mm]HC Air temperature [C]HC Relative humidity [%]
medieminmaxsumamedieminmaxmedie
2019-10-19 23:00:00 15.1 15.1 15.1 0 12.59 12.54 12.64 0
2019-10-19 23:10:00 15 14.9 15.1 0 12.38 12.36 12.41 0
2019-10-19 23:20:00 15 15 15.1 0 12.38 12.36 12.4 0
2019-10-19 23:30:00 15 15 15 0 12.24 12.24 12.25 0
2019-10-19 23:40:00 15 15 15 0 12.17 12.15 12.2 0
2019-10-19 23:50:00 14.9 14.9 15 0 12.18 12.17 12.2 0
2019-10-20 00:00:00 15 15 15 0 12.2 12.2 12.21 0
2019-10-20 00:10:00 14.9 14.8 15 0 12.29 12.28 12.31 0
2019-10-20 00:20:00 14.9 14.9 14.9 0 12.35 12.34 12.36 0
2019-10-20 00:30:00 14.9 14.9 14.9 0 12.26 12.25 12.28 0
2019-10-20 00:40:00 14.8 14.8 14.9 0 12.28 12.27 12.29 0
2019-10-20 00:50:00 14.8 14.7 14.9 0 12.25 12.2 12.31 0
2019-10-20 01:00:00 14.8 14.7 14.9 0 12.05 12.04 12.06 0
2019-10-20 01:10:00 14.8 14.8 14.9 0 11.96 11.93 11.99 0
2019-10-20 01:20:00 14.7 14.7 14.8 0 11.76 11.69 11.84 0
2019-10-20 01:30:00 14.7 14.7 14.8 0 11.83 11.74 11.93 0
2019-10-20 01:40:00 14.6 14.6 14.7 0 11.97 11.93 12.02 0
2019-10-20 01:50:00 14.6 14.6 14.6 0 11.81 11.75 11.88 0
2019-10-20 02:00:00 14.6 14.6 14.6 0 11.61 11.59 11.63 0
2019-10-20 02:10:00 14.6 14.6 14.7 0 11.61 11.59 11.63 0
2019-10-20 02:20:00 14.6 14.6 14.6 0 11.51 11.48 11.55 0
2019-10-20 02:30:00 14.6 14.6 14.6 0 11.44 11.35 11.54 0
2019-10-20 02:40:00 14.5 14.5 14.6 0 11.18 11.1 11.27 0
2019-10-20 02:50:00 14.5 14.5 14.5 0 10.94 10.92 10.96 0
2019-10-20 03:00:00 14.4 14.4 14.5 0 10.84 10.77 10.91 0
2019-10-20 03:10:00 14.4 14.4 14.5 0 10.68 10.64 10.72 0
2019-10-20 03:20:00 14.4 14.3 14.5 0 10.53 10.52 10.54 0
2019-10-20 03:30:00 14.5 14.5 14.6 0 10.44 10.42 10.47 0
2019-10-20 03:40:00 14.5 14.5 14.5 0 10.43 10.4 10.46 0
2019-10-20 03:50:00 14.4 14.4 14.5 0 10.64 10.56 10.72 0
2019-10-20 04:00:00 14.4 14.4 14.4 0 10.72 10.68 10.76 0
2019-10-20 04:10:00 14.3 14.3 14.4 0 10.98 10.9 11.06 0
2019-10-20 04:20:00 14.4 14.4 14.4 0 11.03 11.02 11.05 0
2019-10-20 04:30:00 14.4 14.4 14.4 0 10.85 10.85 10.85 0
2019-10-20 04:40:00 14.3 14.2 14.4 0 10.63 10.46 10.81 0
2019-10-20 04:50:00 14.3 14.3 14.4 0 10.42 10.33 10.51 0
2019-10-20 05:00:00 14.2 14.2 14.3 0 10.65 10.58 10.73 0
2019-10-20 05:10:00 14.3 14.3 14.3 0 10.97 10.93 11.02 0
2019-10-20 05:20:00 14.2 14.2 14.3 0 11.22 11.12 11.33 0
2019-10-20 05:30:00 14.2 14.2 14.3 0 11.51 11.45 11.58 0
2019-10-20 05:40:00 14.2 14.2 14.3 0 11.65 11.63 11.67 0
2019-10-20 05:50:00 14.1 14.1 14.2 0 11.49 11.45 11.53 0
2019-10-20 06:00:00 14.2 14.2 14.3 0 11.22 11.19 11.25 0
2019-10-20 06:10:00 14.2 14.1 14.3 0 11.18 11.18 11.19 0
2019-10-20 06:20:00 14.2 14.1 14.3 0 11.22 11.2 11.24 0
2019-10-20 06:30:00 14.3 14.3 14.3 0 11.3 11.27 11.34 0
2019-10-20 06:40:00 14.1 14.1 14.2 0 11.29 11.27 11.32 0
2019-10-20 06:50:00 14.3 14.3 14.3 0 11.21 11.19 11.24 0